Аэропорт
Фукуок (VVPQ)

 VVPQ / PQC

Viet Nam
VN-47
Зыонгдонг
 10.22700, 103.96700  / 23 ft

 VVPQ 182200Z 23004KT 9999 SCT015 SCT040 26/24 Q1004 NOSIG
 TAF VVPQ 181700Z 1818/1918 25015KT 9999 BKN015 BKN030 TEMPO 1818/1906 26015G32KT TEMPO 1818/1820 5000 SHRA BKN015 FEW017CB BKN040 TEMPO 1823/1904 2000 +TSRA BKN010 FEW013CB BKN030

2020 © VATRUS division (Privacy Policy)